Time;durP1;ratioP1;P1;durP2;ratioP2;P2;SDS_P1;SDS_P2;PMS_P1;PMS_P2;Temp;Humidity;BMP_temperature;BMP_pressure;BME280_temperature;BME280_humidity;BME280_pressure;Samples;Min_cycle;Max_cycle;Signal;HPM_P1;HPM_P2
2022/10/22 00:01:19;;;;;;;4.13;2.35;;;;;;;;;;5018517;28;20041;-83
2022/10/22 00:03:45;;;;;;;4.15;1.70;;;;;;;;;;5018173;28;20468;-83
2022/10/22 00:06:11;;;;;;;5.50;2.45;;;;;;;;;;5034874;28;20077;-83
2022/10/22 00:08:37;;;;;;;5.47;1.83;;;;;;;;;;5035283;28;20587;-83
2022/10/22 00:11:11;;;;;;;4.05;2.22;;;;;;;;;;5053615;28;20045;-87
2022/10/22 00:13:37;;;;;;;3.65;2.22;;;;;;;;;;5047697;28;20046;-86
2022/10/22 00:16:03;;;;;;;3.65;1.67;;;;;;;;;;5018343;28;20077;-87
2022/10/22 00:18:29;;;;;;;4.57;2.55;;;;;;;;;;5018135;28;20041;-87
2022/10/22 00:20:56;;;;;;;6.38;2.50;;;;;;;;;;5034750;28;20073;-87
2022/10/22 00:23:22;;;;;;;8.77;2.20;;;;;;;;;;5018597;28;20047;-87
2022/10/22 00:25:48;;;;;;;4.65;2.35;;;;;;;;;;5034169;28;20117;-87
2022/10/22 00:28:14;;;;;;;3.47;2.22;;;;;;;;;;5018471;28;20045;-84
2022/10/22 00:30:40;;;;;;;4.10;2.08;;;;;;;;;;5016722;28;20056;-84
2022/10/22 00:33:06;;;;;;;3.85;2.10;;;;;;;;;;5037571;28;20067;-84
2022/10/22 00:35:32;;;;;;;2.65;1.63;;;;;;;;;;5017870;28;20124;-84
2022/10/22 00:37:58;;;;;;;4.47;2.38;;;;;;;;;;5034417;28;20038;-85
2022/10/22 00:40:25;;;;;;;4.88;2.08;;;;;;;;;;5017663;28;20041;-84
2022/10/22 00:42:51;;;;;;;4.10;1.65;;;;;;;;;;5035137;28;20121;-84
2022/10/22 00:45:20;;;;;;;2.60;1.40;;;;;;;;;;5017926;28;20404;-83
2022/10/22 00:47:53;;;;;;;3.30;1.90;;;;;;;;;;5033888;28;20049;-84
2022/10/22 00:50:31;;;;;;;2.85;1.58;;;;;;;;;;5034076;28;20433;-83
2022/10/22 00:52:57;;;;;;;5.13;2.38;;;;;;;;;;5017744;28;20392;-83
2022/10/22 00:55:24;;;;;;;3.20;1.90;;;;;;;;;;5033849;28;20552;-83
2022/10/22 00:57:52;;;;;;;3.38;1.98;;;;;;;;;;5033673;28;20080;-83
2022/10/22 01:00:18;;;;;;;6.43;1.90;;;;;;;;;;5017311;28;20095;-84
2022/10/22 01:02:44;;;;;;;4.18;1.70;;;;;;;;;;5034066;28;20037;-84
2022/10/22 01:05:11;;;;;;;2.80;1.83;;;;;;;;;;5049964;28;20037;-84
2022/10/22 01:07:48;;;;;;;2.70;1.55;;;;;;;;;;5033486;28;20120;-84
2022/10/22 01:10:20;;;;;;;3.13;1.75;;;;;;;;;;5017369;28;20053;-84
2022/10/22 01:12:54;;;;;;;3.22;1.88;;;;;;;;;;5046420;28;20049;-84
2022/10/22 01:15:23;;;;;;;3.08;1.95;;;;;;;;;;5036978;28;20051;-84
2022/10/22 01:18:10;;;;;;;3.83;2.00;;;;;;;;;;5026213;28;20187;-83
2022/10/22 01:20:47;;;;;;;3.83;1.70;;;;;;;;;;5029698;28;20041;-83
2022/10/22 01:23:31;;;;;;;3.15;1.80;;;;;;;;;;5016733;28;20045;-83
2022/10/22 01:26:06;;;;;;;3.40;1.73;;;;;;;;;;5033349;28;20045;-83
2022/10/22 01:28:44;;;;;;;9.80;2.92;;;;;;;;;;5032836;28;20396;-83
2022/10/22 01:31:11;;;;;;;5.07;2.47;;;;;;;;;;5016759;28;20399;-83
2022/10/22 01:33:38;;;;;;;5.15;2.75;;;;;;;;;;5017838;28;20041;-83
2022/10/22 01:36:04;;;;;;;4.88;2.50;;;;;;;;;;5033503;28;20091;-83
2022/10/22 01:38:30;;;;;;;7.07;3.75;;;;;;;;;;5033093;28;20399;-83
2022/10/22 01:40:57;;;;;;;2.97;2.05;;;;;;;;;;5033116;28;20128;-83
2022/10/22 01:43:23;;;;;;;4.00;2.00;;;;;;;;;;5017863;28;20043;-83
2022/10/22 01:45:55;;;;;;;4.38;2.30;;;;;;;;;;5016924;28;20041;-83
2022/10/22 01:48:24;;;;;;;6.32;2.42;;;;;;;;;;5032931;28;20045;-83
2022/10/22 01:50:50;;;;;;;5.75;3.08;;;;;;;;;;5032989;28;20084;-84
2022/10/22 01:53:52;;;;;;;5.75;2.63;;;;;;;;;;5016958;28;20139;-84
2022/10/22 01:56:24;;;;;;;4.15;2.17;;;;;;;;;;4975170;28;20052;-84
2022/10/22 01:58:50;;;;;;;4.32;1.92;;;;;;;;;;5036636;28;20124;-84
2022/10/22 02:01:22;;;;;;;4.43;2.55;;;;;;;;;;5032947;28;20045;-84
2022/10/22 02:03:59;;;;;;;17.70;4.60;;;;;;;;;;5016500;28;20037;-84
2022/10/22 02:06:26;;;;;;;4.05;2.45;;;;;;;;;;5032603;28;20041;-83
2022/10/22 02:08:54;;;;;;;4.43;2.53;;;;;;;;;;5032155;28;20443;-83
2022/10/22 02:11:20;;;;;;;8.63;3.28;;;;;;;;;;5032643;28;20251;-83
2022/10/22 02:13:47;;;;;;;6.05;2.95;;;;;;;;;;5015971;28;20044;-83
2022/10/22 02:16:16;;;;;;;3.78;2.42;;;;;;;;;;5031869;28;20041;-83
2022/10/22 02:18:44;;;;;;;4.97;2.83;;;;;;;;;;5034833;28;20034;-83
2022/10/22 02:21:10;;;;;;;3.17;1.95;;;;;;;;;;5016240;28;20119;-83
2022/10/22 02:23:36;;;;;;;5.13;1.98;;;;;;;;;;5016192;28;20041;-86
2022/10/22 02:26:09;;;;;;;5.82;2.83;;;;;;;;;;5042093;28;20112;-86
2022/10/22 02:28:58;;;;;;;4.55;2.50;;;;;;;;;;5036337;28;20407;-87
2022/10/22 02:31:26;;;;;;;6.68;2.55;;;;;;;;;;5022101;28;20486;-86
2022/10/22 02:33:55;;;;;;;5.13;2.70;;;;;;;;;;5032449;28;20042;-86
2022/10/22 02:36:22;;;;;;;4.80;2.30;;;;;;;;;;5039411;28;20045;-86
2022/10/22 02:38:49;;;;;;;5.47;2.70;;;;;;;;;;5050418;28;20072;-86
2022/10/22 02:41:15;;;;;;;5.72;2.65;;;;;;;;;;5017351;28;20033;-86
2022/10/22 02:43:43;;;;;;;3.53;2.30;;;;;;;;;;5054097;22;20147;-84
2022/10/22 02:46:12;;;;;;;5.15;2.63;;;;;;;;;;5074326;28;20052;-84
2022/10/22 02:48:38;;;;;;;4.93;2.55;;;;;;;;;;5065747;28;20037;-84
2022/10/22 02:51:04;;;;;;;5.97;2.35;;;;;;;;;;5071646;28;20399;-84
2022/10/22 02:53:30;;;;;;;5.90;2.97;;;;;;;;;;5073482;28;20394;-84
2022/10/22 02:55:56;;;;;;;5.88;3.40;;;;;;;;;;5062117;28;20044;-84
2022/10/22 02:58:22;;;;;;;7.47;2.40;;;;;;;;;;5080445;28;20119;-84
2022/10/22 03:00:49;;;;;;;5.30;2.85;;;;;;;;;;5078685;28;20036;-84
2022/10/22 03:03:15;;;;;;;6.95;2.70;;;;;;;;;;5061779;28;20028;-84
2022/10/22 03:05:41;;;;;;;6.90;3.13;;;;;;;;;;5078751;28;20076;-82
2022/10/22 03:08:07;;;;;;;6.63;2.80;;;;;;;;;;5080818;28;20455;-82
2022/10/22 03:10:33;;;;;;;5.93;2.88;;;;;;;;;;5061932;28;20036;-81
2022/10/22 03:12:59;;;;;;;6.82;3.08;;;;;;;;;;5079878;28;20047;-82
2022/10/22 03:15:25;;;;;;;6.43;2.88;;;;;;;;;;5077274;28;20036;-80
2022/10/22 03:17:51;;;;;;;5.13;3.08;;;;;;;;;;5100335;28;20443;-80
2022/10/22 03:20:17;;;;;;;6.53;3.25;;;;;;;;;;5081106;28;20119;-80
2022/10/22 03:22:44;;;;;;;7.00;3.22;;;;;;;;;;5060781;28;20040;-80
2022/10/22 03:25:12;;;;;;;10.02;3.03;;;;;;;;;;5063273;28;20049;-80
2022/10/22 03:27:38;;;;;;;4.45;2.50;;;;;;;;;;5078810;28;20067;-80
2022/10/22 03:30:06;;;;;;;3.45;2.20;;;;;;;;;;5061851;28;20048;-80
2022/10/22 03:32:32;;;;;;;4.57;2.35;;;;;;;;;;5077971;28;20086;-80
2022/10/22 03:34:58;;;;;;;5.40;2.67;;;;;;;;;;5062921;28;20142;-80
2022/10/22 03:37:25;;;;;;;5.63;2.28;;;;;;;;;;5061865;28;20040;-80
2022/10/22 03:39:52;;;;;;;7.20;2.70;;;;;;;;;;5079915;28;20118;-80
2022/10/22 03:42:18;;;;;;;6.50;2.63;;;;;;;;;;5060798;28;20056;-80
2022/10/22 03:44:44;;;;;;;4.50;2.60;;;;;;;;;;5061424;28;20505;-81
2022/10/22 03:47:10;;;;;;;5.90;2.35;;;;;;;;;;5079442;28;20398;-81
2022/10/22 03:49:36;;;;;;;6.55;2.85;;;;;;;;;;5095010;28;20070;-80
2022/10/22 03:52:20;;;;;;;4.22;2.53;;;;;;;;;;5078132;28;20036;-80
2022/10/22 03:54:46;;;;;;;4.00;2.53;;;;;;;;;;5081721;28;20043;-80
2022/10/22 03:57:13;;;;;;;6.70;3.22;;;;;;;;;;5061599;28;20052;-80
2022/10/22 03:59:43;;;;;;;4.78;3.08;;;;;;;;;;5078424;28;20558;-80
2022/10/22 04:02:10;;;;;;;5.63;2.90;;;;;;;;;;5077274;28;20470;-81
2022/10/22 04:04:36;;;;;;;6.05;2.63;;;;;;;;;;5095049;28;20383;-81
2022/10/22 04:07:03;;;;;;;4.93;2.15;;;;;;;;;;5057942;28;20044;-81
2022/10/22 04:09:33;;;;;;;4.10;2.33;;;;;;;;;;5062872;28;20045;-81
2022/10/22 04:11:59;;;;;;;3.60;2.00;;;;;;;;;;5074663;28;20482;-81
2022/10/22 04:14:25;;;;;;;6.78;2.40;;;;;;;;;;5075012;28;20044;-81
2022/10/22 04:16:51;;;;;;;7.20;2.20;;;;;;;;;;5058612;28;20044;-81
2022/10/22 04:19:17;;;;;;;5.60;2.38;;;;;;;;;;5057993;28;20098;-80
2022/10/22 04:21:43;;;;;;;5.90;2.83;;;;;;;;;;5076231;28;20425;-81
2022/10/22 04:24:09;;;;;;;5.72;2.45;;;;;;;;;;5074795;28;20482;-81
2022/10/22 04:26:36;;;;;;;8.55;2.70;;;;;;;;;;5057356;28;20517;-81
2022/10/22 04:29:02;;;;;;;4.00;2.38;;;;;;;;;;5058162;28;20131;-81
2022/10/22 04:31:28;;;;;;;7.03;2.70;;;;;;;;;;5058149;28;20080;-81
2022/10/22 04:33:55;;;;;;;8.75;2.50;;;;;;;;;;5074557;28;20078;-81
2022/10/22 04:36:21;;;;;;;7.13;2.30;;;;;;;;;;5057288;28;20047;-81
2022/10/22 04:38:52;;;;;;;6.22;3.40;;;;;;;;;;5058460;28;20127;-83
2022/10/22 04:41:20;;;;;;;5.28;2.45;;;;;;;;;;5091163;28;20036;-83
2022/10/22 04:43:46;;;;;;;5.88;2.75;;;;;;;;;;5057460;28;20056;-83
2022/10/22 04:46:13;;;;;;;4.07;1.95;;;;;;;;;;5089285;28;20045;-83
2022/10/22 04:48:40;;;;;;;3.92;2.33;;;;;;;;;;5057549;28;20107;-83
2022/10/22 04:51:07;;;;;;;5.40;2.42;;;;;;;;;;5057027;28;20495;-83
2022/10/22 04:53:36;;;;;;;7.38;2.78;;;;;;;;;;5057323;28;20040;-80
2022/10/22 04:56:10;;;;;;;4.35;2.20;;;;;;;;;;5074078;28;20395;-80
2022/10/22 04:58:36;;;;;;;6.10;2.45;;;;;;;;;;5091046;28;20040;-80
2022/10/22 05:01:08;;;;;;;7.10;2.35;;;;;;;;;;5077066;28;20051;-80
2022/10/22 05:03:34;;;;;;;4.72;3.03;;;;;;;;;;5073190;28;20040;-80
2022/10/22 05:06:01;;;;;;;4.15;2.20;;;;;;;;;;5073823;28;20121;-80
2022/10/22 05:08:27;;;;;;;10.05;2.40;;;;;;;;;;5071990;28;20036;-81
2022/10/22 05:10:53;;;;;;;3.60;1.98;;;;;;;;;;5068223;28;20493;-81
2022/10/22 05:13:19;;;;;;;5.15;2.35;;;;;;;;;;5047079;28;20036;-80
2022/10/22 05:15:45;;;;;;;5.45;2.70;;;;;;;;;;5067771;28;20044;-80
2022/10/22 05:18:11;;;;;;;6.65;2.95;;;;;;;;;;5073043;28;20044;-80
2022/10/22 05:20:41;;;;;;;4.30;2.45;;;;;;;;;;5058147;28;20097;-80
2022/10/22 05:23:07;;;;;;;6.25;2.92;;;;;;;;;;5056865;28;20483;-80
2022/10/22 05:25:38;;;;;;;9.15;2.60;;;;;;;;;;5073550;28;20041;-80
2022/10/22 05:28:04;;;;;;;5.93;2.47;;;;;;;;;;5046722;28;20065;-82
2022/10/22 05:30:30;;;;;;;5.28;2.50;;;;;;;;;;5069550;28;20051;-83
2022/10/22 05:32:56;;;;;;;3.58;2.00;;;;;;;;;;5073421;28;20048;-83
2022/10/22 05:35:22;;;;;;;4.18;2.13;;;;;;;;;;5056885;28;20483;-83
2022/10/22 05:37:48;;;;;;;6.22;2.17;;;;;;;;;;5073150;28;20052;-83
2022/10/22 05:40:14;;;;;;;3.50;2.20;;;;;;;;;;5072975;28;20072;-83
2022/10/22 05:42:40;;;;;;;7.30;2.28;;;;;;;;;;5086070;28;20052;-83
2022/10/22 05:45:07;;;;;;;8.60;2.70;;;;;;;;;;5073561;28;20136;-85
2022/10/22 05:47:33;;;;;;;11.23;2.90;;;;;;;;;;5073654;28;20098;-85
2022/10/22 05:49:59;;;;;;;5.00;2.55;;;;;;;;;;5056410;28;20044;-85
2022/10/22 05:52:26;;;;;;;5.07;2.53;;;;;;;;;;5058987;28;20506;-85
2022/10/22 05:54:52;;;;;;;8.65;2.38;;;;;;;;;;5073030;28;20044;-85
2022/10/22 05:57:18;;;;;;;7.15;2.88;;;;;;;;;;5073030;28;20124;-85
2022/10/22 05:59:45;;;;;;;4.72;2.35;;;;;;;;;;5073663;28;20467;-85
2022/10/22 06:02:11;;;;;;;15.68;2.83;;;;;;;;;;5073635;28;20044;-85
2022/10/22 06:04:37;;;;;;;3.72;2.22;;;;;;;;;;5080479;28;20040;-85
2022/10/22 06:07:03;;;;;;;5.45;2.60;;;;;;;;;;5073106;28;20123;-85
2022/10/22 06:09:39;;;;;;;4.07;2.53;;;;;;;;;;5056286;28;20074;-85
2022/10/22 06:12:09;;;;;;;3.83;2.28;;;;;;;;;;5072867;28;20124;-85
2022/10/22 06:14:35;;;;;;;8.82;2.25;;;;;;;;;;5057366;28;20051;-85
2022/10/22 06:17:02;;;;;;;3.35;1.90;;;;;;;;;;5072799;28;20056;-85
2022/10/22 06:19:30;;;;;;;5.13;2.10;;;;;;;;;;5073265;28;20036;-85
2022/10/22 06:21:59;;;;;;;5.13;2.45;;;;;;;;;;5078429;28;20481;-85
2022/10/22 06:24:37;;;;;;;6.32;2.65;;;;;;;;;;5084393;28;20084;-85
2022/10/22 06:27:04;;;;;;;9.38;2.67;;;;;;;;;;5098051;28;20108;-84
2022/10/22 06:29:30;;;;;;;12.93;2.65;;;;;;;;;;5110532;28;20040;-84
2022/10/22 06:32:15;;;;;;;5.20;2.72;;;;;;;;;;5095343;28;20044;-85
2022/10/22 06:34:42;;;;;;;6.63;2.33;;;;;;;;;;5108808;28;20068;-85
2022/10/22 06:37:14;;;;;;;5.40;2.40;;;;;;;;;;5095796;28;20047;-84
2022/10/22 06:39:41;;;;;;;3.22;2.03;;;;;;;;;;5094999;28;20020;-84
2022/10/22 06:42:08;;;;;;;4.22;2.20;;;;;;;;;;5109260;28;20051;-85
2022/10/22 06:44:35;;;;;;;3.95;2.40;;;;;;;;;;5066085;28;20554;-84
2022/10/22 06:47:01;;;;;;;5.10;2.33;;;;;;;;;;5076483;28;20160;-85
2022/10/22 06:49:27;;;;;;;4.07;2.33;;;;;;;;;;5088547;28;20127;-85
2022/10/22 06:51:53;;;;;;;13.30;2.97;;;;;;;;;;5054955;28;20379;-83
2022/10/22 06:54:20;;;;;;;4.97;2.17;;;;;;;;;;5072175;28;20052;-83
2022/10/22 06:56:46;;;;;;;8.40;3.63;;;;;;;;;;5070532;28;20243;-83
2022/10/22 06:59:12;;;;;;;5.53;2.35;;;;;;;;;;5092437;28;20047;-82
2022/10/22 07:01:39;;;;;;;4.57;2.42;;;;;;;;;;5082191;28;20051;-83
2022/10/22 07:04:05;;;;;;;8.70;2.60;;;;;;;;;;5073160;28;20096;-83
2022/10/22 07:06:31;;;;;;;5.28;2.45;;;;;;;;;;5096479;28;20079;-82
2022/10/22 07:08:59;;;;;;;5.53;2.15;;;;;;;;;;5094225;28;20047;-82
2022/10/22 07:11:26;;;;;;;7.20;2.53;;;;;;;;;;5094289;28;20044;-83
2022/10/22 07:13:57;;;;;;;7.65;3.83;;;;;;;;;;5093171;28;20470;-83
2022/10/22 07:16:23;;;;;;;8.93;2.75;;;;;;;;;;5080309;28;20491;-82
2022/10/22 07:18:49;;;;;;;6.40;3.10;;;;;;;;;;5054888;28;20493;-83
2022/10/22 07:21:17;;;;;;;4.90;2.40;;;;;;;;;;5089452;28;20048;-83
2022/10/22 07:23:43;;;;;;;4.85;2.55;;;;;;;;;;5071189;28;20082;-83
2022/10/22 07:26:11;;;;;;;6.13;2.83;;;;;;;;;;5054847;28;20036;-83
2022/10/22 07:28:39;;;;;;;6.97;2.58;;;;;;;;;;5073157;28;20040;-83
2022/10/22 07:31:06;;;;;;;10.18;2.75;;;;;;;;;;5059536;28;20051;-83
2022/10/22 07:33:32;;;;;;;5.53;2.10;;;;;;;;;;5071398;28;20115;-83
2022/10/22 07:35:59;;;;;;;10.65;3.03;;;;;;;;;;5070448;28;20040;-83
2022/10/22 07:38:25;;;;;;;5.57;2.63;;;;;;;;;;5071345;28;20079;-83
2022/10/22 07:40:52;;;;;;;8.20;2.47;;;;;;;;;;5073526;28;20393;-83
2022/10/22 07:43:18;;;;;;;8.30;2.70;;;;;;;;;;5063348;28;20048;-83
2022/10/22 07:45:45;;;;;;;5.95;2.42;;;;;;;;;;5074453;28;20036;-83
2022/10/22 07:48:11;;;;;;;6.97;2.45;;;;;;;;;;5077300;28;20024;-82
2022/10/22 07:50:37;;;;;;;11.07;2.55;;;;;;;;;;5075700;28;20048;-82
2022/10/22 07:53:03;;;;;;;5.75;3.13;;;;;;;;;;5038475;28;20041;-82
2022/10/22 07:55:29;;;;;;;4.95;2.70;;;14.10;99.90;;;;;;5055811;28;20041;-82
2022/10/22 07:57:55;;;;;;;7.13;2.75;;;;;;;;;;5052733;28;20036;-83
2022/10/22 08:00:21;;;;;;;7.60;3.10;;;;;;;;;;5058540;28;20492;-82
2022/10/22 08:02:47;;;;;;;4.75;1.83;;;;;;;;;;5078340;28;20039;-83
2022/10/22 08:05:13;;;;;;;22.15;2.72;;;;;;;;;;5095248;28;20064;-83
2022/10/22 08:07:39;;;;;;;7.25;2.60;;;;;;;;;;5077541;28;20040;-83
2022/10/22 08:10:06;;;;;;;7.32;2.20;;;;;;;;;;5074916;28;20047;-83
2022/10/22 08:12:32;;;;;;;4.28;1.85;;;;;;;;;;5075399;28;20071;-83
2022/10/22 08:14:59;;;;;;;9.95;2.65;;;;;;;;;;5055451;28;20040;-83
2022/10/22 08:17:25;;;;;;;12.57;2.38;;;;;;;;;;5073506;28;20379;-83
2022/10/22 08:19:52;;;;;;;3.55;2.25;;;;;;;;;;5071068;28;20036;-83
2022/10/22 08:22:18;;;;;;;5.18;2.00;;;;;;;;;;5083670;28;20542;-83
2022/10/22 08:24:44;;;;;;;7.60;1.83;;;;;;;;;;5068730;28;20059;-83
2022/10/22 08:27:10;;;;;;;4.10;1.45;;;;;;;;;;5087846;28;20086;-83
2022/10/22 08:29:36;;;;;;;3.88;2.00;;;;;;;;;;5074611;28;20056;-83
2022/10/22 08:32:02;;;;;;;17.00;2.78;;;;;;;;;;5074578;28;20048;-86
2022/10/22 08:34:29;;;;;;;7.18;1.67;;;;;;;;;;5071725;28;20075;-86
2022/10/22 08:36:55;;;;;;;9.30;1.60;;;;;;;;;;5074088;28;20486;-86
2022/10/22 08:39:21;;;;;;;7.47;1.95;;;;;;;;;;5074607;28;20060;-86
2022/10/22 08:41:47;;;;;;;8.70;1.90;;;;;;;;;;5073574;28;20037;-86
2022/10/22 08:44:19;;;;;;;5.15;1.67;;;;;;;;;;5058276;28;20053;-86
2022/10/22 08:47:13;;;;;;;7.85;2.28;;;23.40;99.90;;;;;;5054215;28;20402;-86
2022/10/22 08:49:41;;;;;;;4.78;2.10;;;23.00;99.90;;;;;;5073909;28;20137;-86
2022/10/22 08:52:13;;;;;;;8.90;1.98;;;22.80;99.90;;;;;;5073181;28;20049;-86
2022/10/22 08:55:00;;;;;;;6.20;1.48;;;22.50;99.90;;;;;;5074579;28;20049;-85
2022/10/22 08:57:38;;;;;;;5.68;1.52;;;;;;;;;;5055546;28;20047;-86
2022/10/22 09:00:06;;;;;;;3.45;1.80;;;;;;;;;;5056662;28;20064;-86
2022/10/22 09:02:51;;;;;;;6.78;1.45;;;;;;;;;;5073821;28;20070;-86
2022/10/22 09:05:29;;;;;;;3.67;1.40;;;20.50;99.90;;;;;;5075181;28;20037;-83
2022/10/22 09:07:56;;;;;;;4.00;1.60;;;20.20;99.90;;;;;;5072066;28;20075;-83
2022/10/22 09:10:28;;;;;;;4.72;1.90;;;19.40;99.90;;;;;;5056217;28;20051;-83
2022/10/22 09:12:53;;;;;;;8.60;2.03;;;19.30;99.90;;;;;;5056992;28;20490;-83
2022/10/22 09:15:20;;;;;;;3.55;1.90;;;18.90;99.90;;;;;;5073681;28;20047;-83
2022/10/22 09:18:15;;;;;;;4.25;1.77;;;18.60;99.90;;;;;;5069983;28;20462;-83
2022/10/22 09:20:55;;;;;;;9.23;1.73;;;18.40;99.90;;;;;;5064309;28;20033;-83
2022/10/22 09:23:39;;;;;;;4.00;1.60;;;18.10;99.90;;;;;;5070618;28;20075;-83
2022/10/22 09:26:14;;;;;;;20.00;2.28;;;18.10;99.90;;;;;;5089951;28;20036;-84
2022/10/22 09:28:40;;;;;;;22.98;2.15;;;18.10;99.90;;;;;;5073774;28;20376;-83
2022/10/22 09:31:13;;;;;;;4.45;1.58;;;18.10;99.90;;;;;;5074394;28;20043;-83
2022/10/22 09:33:41;;;;;;;9.63;2.25;;;18.00;99.90;;;;;;5056208;28;20036;-83
2022/10/22 09:36:15;;;;;;;5.72;1.75;;;18.00;99.90;;;;;;5073553;28;20490;-83
2022/10/22 09:38:46;;;;;;;4.28;1.30;;;17.80;99.90;;;;;;5073670;28;20051;-83
2022/10/22 09:41:13;;;;;;;3.83;2.45;;;17.80;99.90;;;;;;5107676;28;20040;-83
2022/10/22 09:43:39;;;;;;;5.38;1.90;;;;;;;;;;5089163;28;20406;-83
2022/10/22 09:46:08;;;;;;;6.20;1.85;;;;;;;;;;5072737;28;20044;-83
2022/10/22 09:48:36;;;;;;;2.80;1.35;;;;;;;;;;5083556;28;20479;-83
2022/10/22 09:51:02;;;;;;;7.07;2.00;;;;;;;;;;5093067;28;20385;-83
2022/10/22 09:53:30;;;;;;;5.45;2.20;;;;;;;;;;5070594;28;20163;-85
2022/10/22 09:55:58;;;;;;;7.18;2.45;;;;;;;;;;5059290;28;20514;-85
2022/10/22 09:58:24;;;;;;;4.93;1.50;;;;;;;;;;5055093;28;20043;-85
2022/10/22 10:00:58;;;;;;;5.90;1.83;;;;;;;;;;5072970;28;20040;-86
2022/10/22 10:03:26;;;;;;;14.95;2.70;;;;;;;;;;5056558;28;20165;-86
2022/10/22 10:05:54;;;;;;;7.55;1.88;;;19.40;99.90;;;;;;5089737;28;20527;-86
2022/10/22 10:08:21;;;;;;;7.15;2.20;;;18.90;99.90;;;;;;5068813;28;20131;-86
2022/10/22 10:10:58;;;;;;;4.68;2.13;;;18.60;99.90;;;;;;5066907;28;20116;-83
2022/10/22 10:13:30;;;;;;;5.28;1.58;;;18.30;99.90;;;;;;5099202;28;20032;-83
2022/10/22 10:16:40;;;;;;;6.90;1.95;;;18.10;99.90;;;;;;5082614;28;20091;-83
2022/10/22 10:19:06;;;;;;;4.10;1.90;;;17.80;99.90;;;;;;5092161;28;20043;-83
2022/10/22 10:21:31;;;;;;;3.83;1.90;;;17.70;99.90;;;;;;5057983;28;20048;-83
2022/10/22 10:24:11;;;;;;;4.10;1.95;;;17.60;99.90;;;;;;5072729;28;20391;-84
2022/10/22 10:26:49;;;;;;;9.90;2.00;;;17.40;99.90;;;;;;5065020;28;20478;-84
2022/10/22 10:29:23;;;;;;;3.28;1.40;;;17.20;99.90;;;;;;5081293;28;20386;-84
2022/10/22 10:32:07;;;;;;;12.23;2.03;;;17.20;99.90;;;;;;5064480;28;20047;-84
2022/10/22 10:34:48;;;;;;;8.35;2.03;;;17.00;99.90;;;;;;5063356;28;20029;-84
2022/10/22 10:37:23;;;;;;;10.15;2.08;;;17.00;99.90;;;;;;5102039;28;20044;-84
2022/10/22 10:40:07;;;;;;;6.35;1.80;;;16.90;99.90;;;;;;5090031;28;20036;-83
2022/10/22 10:42:40;;;;;;;5.60;1.75;;;16.80;99.90;;;;;;5053652;28;20127;-83
2022/10/22 10:45:19;;;;;;;5.07;2.28;;;16.70;99.90;;;;;;5056549;28;20049;-84
2022/10/22 10:48:05;;;;;;;11.20;1.98;;;16.60;99.90;;;;;;5052302;28;20080;-84
2022/10/22 10:50:55;;;;;;;5.20;1.95;;;16.60;99.90;;;;;;5067601;28;20123;-84
2022/10/22 10:53:28;;;;;;;4.45;1.95;;;16.60;99.90;;;;;;5062919;28;20044;-84
2022/10/22 10:56:11;;;;;;;7.10;1.75;;;;;;;;;;5071647;28;20115;-84
2022/10/22 10:58:43;;;;;;;7.60;2.13;;;;;;;;;;5071631;28;20055;-83
2022/10/22 11:01:19;;;;;;;5.43;2.30;;;;;;;;;;5056386;28;20501;-84
2022/10/22 11:03:48;;;;;;;4.30;2.17;;;;;;;;;;5069608;28;20064;-83
2022/10/22 11:06:15;;;;;;;7.30;2.33;;;;;;;;;;5071371;28;20485;-83
2022/10/22 11:08:48;;;;;;;4.32;1.77;;;;;;;;;;5071576;28;20048;-83
2022/10/22 11:11:21;;;;;;;5.20;2.03;;;17.70;99.90;;;;;;5071566;28;20036;-84
2022/10/22 11:14:02;;;;;;;7.03;2.33;;;17.60;99.90;;;;;;5073808;28;20131;-84
2022/10/22 11:16:51;;;;;;;5.90;1.85;;;17.30;99.90;;;;;;5105274;28;20574;-84
2022/10/22 11:19:37;;;;;;;2.75;1.67;;;17.10;99.90;;;;;;5072530;28;20391;-84
2022/10/22 11:22:10;;;;;;;6.03;2.72;;;16.80;99.90;;;;;;5081437;28;20036;-83
2022/10/22 11:24:54;;;;;;;4.53;2.15;;;16.70;99.90;;;;;;5075532;28;20615;-83
2022/10/22 11:27:37;;;;;;;5.80;2.47;;;16.70;99.90;;;;;;5071049;28;20045;-83
2022/10/22 11:30:27;;;;;;;3.17;1.85;;;16.60;99.90;;;;;;5088579;28;20041;-83
2022/10/22 11:32:56;;;;;;;7.28;2.33;;;16.80;99.90;;;;;;5096438;28;20478;-83
2022/10/22 11:35:34;;;;;;;3.20;2.22;;;16.70;99.90;;;;;;5052553;28;20570;-83
2022/10/22 11:38:02;;;;;;;9.75;2.58;;;16.70;99.90;;;;;;5057263;28;20045;-83
2022/10/22 11:40:27;;;;;;;6.45;2.15;;;16.70;99.90;;;;;;5075278;28;20140;-83
2022/10/22 11:42:58;;;;;;;4.43;1.98;;;16.80;99.90;;;;;;5075300;28;20096;-83
2022/10/22 11:45:24;;;;;;;4.18;2.33;;;16.70;99.90;;;;;;5092290;28;20048;-83
2022/10/22 11:47:55;;;;;;;9.98;2.10;;;16.70;99.90;;;;;;5058368;28;20161;-83
2022/10/22 11:50:24;;;;;;;8.02;2.10;;;16.70;99.90;;;;;;5074296;28;20413;-83
2022/10/22 11:53:29;;;;;;;5.03;1.50;;;16.80;99.90;;;;;;5038559;28;20506;-83
2022/10/22 11:56:08;;;;;;;4.53;1.90;;;16.90;99.90;;;;;;5071915;28;20122;-83
2022/10/22 11:58:34;;;;;;;6.85;2.35;;;17.10;99.90;;;;;;5064049;28;20079;-83
2022/10/22 12:01:09;;;;;;;4.60;2.08;;;17.10;99.90;;;;;;5070374;28;20479;-83
2022/10/22 12:03:47;;;;;;;5.20;2.15;;;17.10;99.90;;;;;;5088656;28;20040;-83
2022/10/22 12:06:18;;;;;;;5.07;2.10;;;17.10;99.90;;;;;;5091618;28;20513;-83
2022/10/22 12:08:55;;;;;;;5.95;1.67;;;17.10;99.90;;;;;;5072702;28;20075;-83
2022/10/22 12:11:46;;;;;;;3.22;1.42;;;17.00;99.90;;;;;;5074107;28;20067;-83
2022/10/22 12:14:28;;;;;;;9.40;2.22;;;17.00;99.90;;;;;;5075189;28;20052;-83
2022/10/22 12:17:11;;;;;;;3.28;1.25;;;17.00;99.90;;;;;;5074652;28;20554;-83
2022/10/22 12:19:40;;;;;;;5.85;1.52;;;16.90;99.90;;;;;;5074164;28;20039;-83
2022/10/22 12:22:08;;;;;;;5.53;1.65;;;16.90;99.90;;;;;;5057585;28;20033;-83
2022/10/22 12:24:39;;;;;;;5.57;1.55;;;16.90;99.90;;;;;;5074924;28;20060;-83
2022/10/22 12:27:15;;;;;;;3.90;1.63;;;;;;;;;;5056898;28;20037;-82
2022/10/22 12:29:41;;;;;;;4.28;1.58;;;;;;;;;;5074347;28;20036;-83
2022/10/22 12:32:12;;;;;;;3.05;1.27;;;;;;;;;;5073977;28;20515;-83
2022/10/22 12:34:44;;;;;;;2.25;1.20;;;;;;;;;;5057862;28;20509;-83
2022/10/22 12:37:11;;;;;;;4.22;1.38;;;;;;;;;;5074288;28;20040;-83
2022/10/22 12:39:37;;;;;;;4.85;1.52;;;;;;;;;;5074200;28;20036;-83
2022/10/22 12:42:05;;;;;;;9.02;2.10;;;;;;;;;;5057406;28;20402;-83
2022/10/22 12:44:32;;;;;;;5.85;1.75;;;;;;;;;;5074421;28;20051;-82
2022/10/22 12:46:58;;;;;;;4.38;1.50;;;;;;;;;;5057509;28;20509;-82
2022/10/22 12:49:33;;;;;;;6.57;2.10;;;;;;;;;;5074471;28;20475;-83
2022/10/22 12:52:04;;;;;;;5.88;1.67;;;;;;;;;;5073556;28;20089;-83
2022/10/22 12:54:31;;;;;;;6.80;1.10;;;;;;;;;;5096423;28;20044;-82
2022/10/22 12:56:59;;;;;;;3.80;1.10;;;;;;;;;;5057319;28;20040;-83
2022/10/22 12:59:27;;;;;;;4.07;0.85;;;;;;;;;;5074171;28;20079;-84
2022/10/22 13:01:54;;;;;;;2.67;1.05;;;;;;;;;;5052559;28;20033;-83
2022/10/22 13:04:22;;;;;;;3.92;1.63;;;;;;;;;;5052115;28;20047;-83
2022/10/22 13:06:53;;;;;;;3.47;1.15;;;;;;;;;;5073919;28;20078;-83
2022/10/22 13:09:23;;;;;;;4.80;1.15;;;;;;;;;;5074810;28;20500;-83
2022/10/22 13:11:56;;;;;;;6.03;0.95;;;;;;;;;;5074220;28;20493;-83
2022/10/22 13:14:23;;;;;;;5.93;1.55;;;;;;;;;;5057370;28;20043;-83
2022/10/22 13:17:07;;;;;;;4.15;1.20;;;;;;;;;;5072311;28;20133;-83
2022/10/22 13:19:52;;;;;;;7.35;0.95;;;;;;;;;;5057392;28;20040;-84
2022/10/22 13:22:29;;;;;;;4.13;1.15;;;;;;;;;;5073742;28;20045;-84
2022/10/22 13:24:57;;;;;;;4.70;1.08;;;;;;;;;;5073386;28;20582;-84
2022/10/22 13:27:23;;;;;;;4.50;0.77;;;;;;;;;;5057062;28;20044;-84
2022/10/22 13:29:50;;;;;;;4.35;1.13;;;;;;;;;;5073653;28;20047;-83
2022/10/22 13:32:27;;;;;;;6.45;0.93;;;;;;;;;;5073637;28;20093;-83
2022/10/22 13:34:53;;;;;;;18.20;1.83;;;;;;;;;;5073398;28;20487;-84
2022/10/22 13:37:19;;;;;;;5.45;1.48;;;;;;;;;;5073520;28;20040;-84
2022/10/22 13:39:45;;;;;;;5.05;0.82;;;;;;;;;;5073171;28;20032;-83
2022/10/22 13:42:12;;;;;;;6.43;1.23;;;;;;;;;;5072726;28;20047;-83
2022/10/22 13:44:38;;;;;;;1.33;0.65;;;;;;;;;;5073216;28;20082;-83
2022/10/22 13:47:10;;;;;;;7.53;2.17;;;;;;;;;;5057160;28;20041;-84
2022/10/22 13:49:39;;;;;;;5.97;1.30;;;;;;;;;;5073510;28;20041;-84
2022/10/22 13:52:05;;;;;;;4.35;1.75;;;;;;;;;;5073590;28;20152;-85
2022/10/22 13:54:31;;;;;;;4.78;1.42;;;;;;;;;;5056269;28;20073;-84
2022/10/22 13:56:57;;;;;;;3.53;1.27;;;;;;;;;;5072737;28;20040;-84
2022/10/22 13:59:23;;;;;;;5.95;1.23;;;;;;;;;;5072882;28;20486;-85
2022/10/22 14:01:49;;;;;;;2.95;0.88;;;;;;;;;;5073446;28;20036;-85
2022/10/22 14:04:15;;;;;;;4.88;1.30;;;;;;;;;;5056500;28;20432;-82
2022/10/22 14:06:41;;;;;;;3.55;1.27;;;;;;;;;;5056519;28;20036;-82
2022/10/22 14:09:11;;;;;;;2.53;1.17;;;;;;;;;;5072870;28;20044;-81
2022/10/22 14:11:37;;;;;;;3.50;1.10;;;;;;;;;;5072763;28;20052;-81
2022/10/22 14:14:07;;;;;;;8.02;0.75;;;;;;;;;;5072378;28;20051;-82
2022/10/22 14:16:34;;;;;;;6.15;1.10;;;;;;;;;;5072607;28;20052;-82
2022/10/22 14:19:00;;;;;;;5.57;1.00;;;;;;;;;;5072413;28;20036;-81
2022/10/22 14:21:28;;;;;;;2.63;1.17;;;;;;;;;;5072880;28;20036;-85
2022/10/22 14:23:54;;;;;;;6.22;0.90;;;;;;;;;;5072669;28;20033;-85
2022/10/22 14:26:26;;;;;;;6.28;1.00;;;18.10;99.90;;;;;;5072623;28;20051;-85
2022/10/22 14:28:51;;;;;;;16.92;1.23;;;18.10;99.90;;;;;;5072973;28;20410;-85
2022/10/22 14:31:17;;;;;;;3.83;0.73;;;17.80;99.90;;;;;;5055795;28;20043;-85